Time;durP1;ratioP1;P1;durP2;ratioP2;P2;SDS_P1;SDS_P2;PMS_P1;PMS_P2;Temp;Humidity;BMP_temperature;BMP_pressure;BME280_temperature;BME280_humidity;BME280_pressure;Samples;Min_cycle;Max_cycle;Signal;HPM_P1;HPM_P2
2022/04/22 00:00:00;;;;;;;5.85;2.97;;;10.90;91.80;;;;;;4913379;29;20043;-72
2022/04/22 00:02:26;;;;;;;7.40;3.40;;;10.80;91.80;;;;;;4939474;29;20031;-72
2022/04/22 00:04:52;;;;;;;6.05;3.83;;;10.80;91.90;;;;;;4933816;29;20539;-71
2022/04/22 00:07:17;;;;;;;7.82;3.47;;;10.70;92.00;;;;;;4932595;29;20083;-71
2022/04/22 00:09:42;;;;;;;7.90;3.88;;;10.60;92.10;;;;;;4921839;29;20032;-71
2022/04/22 00:12:09;;;;;;;4.75;3.08;;;10.60;92.20;;;;;;4930109;29;20115;-71
2022/04/22 00:14:34;;;;;;;6.75;3.55;;;10.50;92.20;;;;;;4927974;29;20480;-71
2022/04/22 00:17:00;;;;;;;6.85;3.13;;;10.50;92.30;;;;;;4932731;29;20046;-71
2022/04/22 00:19:26;;;;;;;6.93;3.17;;;10.50;92.30;;;;;;4915348;29;20040;-71
2022/04/22 00:21:53;;;;;;;7.32;3.33;;;10.50;92.30;;;;;;4932250;29;20391;-71
2022/04/22 00:24:18;;;;;;;4.65;2.90;;;10.50;92.40;;;;;;4914819;29;20091;-71
2022/04/22 00:26:44;;;;;;;7.13;3.50;;;10.40;92.50;;;;;;4931694;29;20031;-71
2022/04/22 00:29:10;;;;;;;9.30;4.32;;;10.40;92.50;;;;;;4932837;29;20393;-72
2022/04/22 00:31:35;;;;;;;7.18;3.50;;;10.30;92.60;;;;;;4933620;29;20103;-71
2022/04/22 00:34:01;;;;;;;6.00;3.42;;;10.20;92.60;;;;;;4932815;29;20028;-71
2022/04/22 00:36:26;;;;;;;6.78;3.95;;;10.20;92.60;;;;;;4933376;29;20024;-71
2022/04/22 00:38:52;;;;;;;7.55;3.63;;;10.20;92.70;;;;;;4932293;29;20040;-71
2022/04/22 00:41:18;;;;;;;6.95;3.67;;;10.20;92.60;;;;;;4932210;29;20467;-71
2022/04/22 00:43:49;;;;;;;8.30;4.03;;;10.20;92.70;;;;;;4932826;29;20036;-71
2022/04/22 00:46:15;;;;;;;9.23;5.30;;;10.20;92.70;;;;;;4933266;29;20039;-71
2022/04/22 00:48:40;;;;;;;9.07;4.57;;;10.20;92.80;;;;;;4932351;29;20422;-70
2022/04/22 00:51:07;;;;;;;8.52;4.03;;;10.10;92.90;;;;;;4933274;29;20031;-70
2022/04/22 00:53:35;;;;;;;6.50;3.65;;;10.10;92.90;;;;;;4932115;29;20031;-70
2022/04/22 00:56:03;;;;;;;8.82;4.38;;;10.00;92.90;;;;;;4934015;29;20084;-70
2022/04/22 00:58:28;;;;;;;9.65;4.50;;;9.90;93.10;;;;;;4934002;29;20399;-69
2022/04/22 01:00:54;;;;;;;8.18;4.22;;;9.90;93.10;;;;;;4926522;29;20027;-70
2022/04/22 01:03:19;;;;;;;9.60;4.50;;;9.90;93.10;;;;;;4935629;29;20506;-69
2022/04/22 01:09:47;;;;;;;9.27;4.28;;;9.70;93.30;;;;;;4936129;29;20044;-69
2022/04/22 01:11:18;;;;;;;12.68;6.18;;;9.70;93.30;;;;;;4934769;29;20479;-69
2022/04/22 01:13:45;;;;;;;11.82;4.97;;;9.60;93.40;;;;;;4935641;29;20036;-69
2022/04/22 01:16:10;;;;;;;10.32;4.85;;;9.60;93.50;;;;;;4936798;29;20034;-69
2022/04/22 01:18:37;;;;;;;10.10;4.78;;;9.50;93.60;;;;;;4935749;29;20036;-69
2022/04/22 01:21:03;;;;;;;7.07;4.95;;;9.50;93.70;;;;;;4935285;29;20028;-69
2022/04/22 01:23:29;;;;;;;8.55;4.93;;;9.40;93.70;;;;;;4927439;29;20048;-70
2022/04/22 01:25:56;;;;;;;12.38;4.95;;;9.30;93.80;;;;;;4936420;29;20028;-69
2022/04/22 01:28:23;;;;;;;9.00;4.82;;;9.30;93.80;;;;;;4935080;29;20135;-69
2022/04/22 01:30:53;;;;;;;9.57;5.07;;;9.20;94.00;;;;;;4936819;29;20071;-69
2022/04/22 01:33:19;;;;;;;11.57;5.45;;;9.20;94.00;;;;;;4915480;29;20090;-70
2022/04/22 01:35:44;;;;;;;12.15;5.43;;;9.10;94.10;;;;;;4934615;29;20511;-71
2022/04/22 01:38:10;;;;;;;9.02;5.50;;;9.10;94.20;;;;;;4935680;29;20043;-71
2022/04/22 01:40:35;;;;;;;11.18;5.78;;;9.10;94.30;;;;;;4936245;29;20376;-71
2022/04/22 01:43:01;;;;;;;8.43;5.35;;;9.00;94.40;;;;;;4933589;29;20123;-72
2022/04/22 01:45:26;;;;;;;10.23;4.95;;;9.00;94.60;;;;;;4928844;29;20395;-72
2022/04/22 01:47:52;;;;;;;11.13;5.78;;;8.90;94.60;;;;;;4923269;29;20107;-71
2022/04/22 01:50:17;;;;;;;11.65;5.25;;;8.90;94.70;;;;;;4917289;29;20028;-71
2022/04/22 01:52:43;;;;;;;11.63;5.22;;;8.80;94.70;;;;;;4925165;29;20103;-71
2022/04/22 01:55:09;;;;;;;9.88;5.07;;;8.80;94.70;;;;;;4935652;29;20036;-70
2022/04/22 01:57:34;;;;;;;14.20;5.70;;;8.80;94.80;;;;;;4915172;29;20056;-70
2022/04/22 02:00:02;;;;;;;8.95;5.28;;;8.80;94.80;;;;;;4917573;29;20388;-71
2022/04/22 02:02:27;;;;;;;9.80;5.05;;;8.80;94.90;;;;;;4922841;29;20031;-72
2022/04/22 02:04:52;;;;;;;12.85;5.80;;;8.80;94.90;;;;;;4935650;29;20032;-70
2022/04/22 02:07:18;;;;;;;9.55;5.20;;;8.80;94.90;;;;;;4934812;29;20110;-71
2022/04/22 02:09:43;;;;;;;9.15;5.78;;;8.80;95.30;;;;;;4935878;29;20426;-71
2022/04/22 02:12:09;;;;;;;11.40;5.97;;;8.70;95.10;;;;;;4934640;29;20042;-71
2022/04/22 02:14:35;;;;;;;11.50;5.53;;;8.60;95.40;;;;;;4935513;29;20094;-71
2022/04/22 02:17:01;;;;;;;14.88;6.28;;;8.60;95.50;;;;;;4933745;29;20043;-71
2022/04/22 02:19:26;;;;;;;9.82;6.13;;;8.50;95.60;;;;;;4935904;29;20129;-70
2022/04/22 02:21:52;;;;;;;11.02;5.47;;;8.50;95.60;;;;;;4934172;29;20483;-71
2022/04/22 02:24:18;;;;;;;15.30;7.30;;;8.50;95.60;;;;;;4935533;29;20087;-70
2022/04/22 02:29:28;;;;;;;14.52;5.85;;;8.60;95.70;;;;;;4923659;29;20036;-71
2022/04/22 02:31:53;;;;;;;13.45;5.90;;;8.60;95.70;;;;;;4934440;29;20040;-70
2022/04/22 02:34:20;;;;;;;12.77;5.80;;;8.60;95.70;;;;;;4935400;29;20051;-71
2022/04/22 02:36:46;;;;;;;13.57;6.18;;;8.60;95.60;;;;;;4934345;29;20028;-71
2022/04/22 02:39:11;;;;;;;10.05;5.53;;;8.70;95.70;;;;;;4926447;29;20458;-71
2022/04/22 02:47:05;;;;;;;15.73;6.97;;;8.70;95.70;;;;;;4934145;29;20046;-71
2022/04/22 02:49:31;;;;;;;15.35;7.53;;;8.70;95.70;;;;;;4933560;29;20028;-70
2022/04/22 02:51:57;;;;;;;11.60;6.55;;;8.70;95.80;;;;;;4931117;29;20036;-70
2022/04/22 02:54:22;;;;;;;12.73;6.22;;;8.60;95.80;;;;;;4930017;29;20032;-71
2022/04/22 02:56:51;;;;;;;12.32;6.03;;;8.60;95.90;;;;;;4916660;29;20502;-71
2022/04/22 02:59:20;;;;;;;12.32;5.57;;;8.60;95.90;;;;;;4931585;29;20043;-71
2022/04/22 03:01:46;;;;;;;13.40;6.28;;;8.60;95.90;;;;;;4915538;29;20048;-71
2022/04/22 03:04:12;;;;;;;13.32;7.47;;;8.70;95.80;;;;;;4934685;29;20341;-71
2022/04/22 03:06:37;;;;;;;12.02;6.25;;;8.60;95.90;;;;;;4917787;29;20390;-70
2022/04/22 03:09:04;;;;;;;20.02;8.05;;;8.60;96.10;;;;;;4934061;29;20035;-72
2022/04/22 03:11:30;;;;;;;13.00;5.85;;;8.50;96.10;;;;;;4934875;29;20573;-71
2022/04/22 03:13:55;;;;;;;12.57;6.03;;;8.50;96.10;;;;;;4929586;29;20032;-71
2022/04/22 03:16:24;;;;;;;11.82;6.78;;;8.50;96.10;;;;;;4930723;29;20036;-71
2022/04/22 03:18:53;;;;;;;11.50;6.72;;;8.50;96.10;;;;;;4923077;29;20044;-71
2022/04/22 03:21:24;;;;;;;11.68;6.47;;;8.50;96.20;;;;;;4930995;29;20581;-71
2022/04/22 03:23:50;;;;;;;13.13;6.72;;;8.40;96.30;;;;;;4931783;29;20056;-71
2022/04/22 03:26:16;;;;;;;10.57;7.18;;;8.50;96.30;;;;;;4934059;29;20027;-71
2022/04/22 03:28:41;;;;;;;11.65;5.60;;;8.40;96.20;;;;;;4933171;29;20027;-71
2022/04/22 03:31:07;;;;;;;15.38;6.32;;;8.50;96.30;;;;;;4917302;29;20522;-70
2022/04/22 03:33:33;;;;;;;13.80;6.65;;;8.40;96.30;;;;;;4932976;29;20114;-70
2022/04/22 03:35:58;;;;;;;11.15;6.35;;;8.40;96.30;;;;;;4933519;29;20032;-70
2022/04/22 03:38:24;;;;;;;10.80;6.18;;;8.40;96.40;;;;;;4933019;29;20058;-70
2022/04/22 03:40:51;;;;;;;13.40;6.32;;;8.40;96.50;;;;;;4934476;29;20027;-70
2022/04/22 03:43:18;;;;;;;12.35;6.60;;;8.40;96.60;;;;;;4932729;29;20032;-69
2022/04/22 03:45:44;;;;;;;13.05;6.90;;;8.30;96.60;;;;;;4934250;29;20031;-70
2022/04/22 03:48:11;;;;;;;14.57;5.97;;;8.40;96.70;;;;;;4916231;29;20115;-70
2022/04/22 03:50:37;;;;;;;12.45;7.25;;;8.40;96.50;;;;;;4917266;29;20027;-70
2022/04/22 03:53:04;;;;;;;12.77;6.72;;;8.40;96.50;;;;;;4923832;29;20025;-70
2022/04/22 03:55:29;;;;;;;11.45;6.07;;;8.50;96.50;;;;;;4915111;29;20039;-70
2022/04/22 03:58:10;;;;;;;11.07;5.72;;;8.50;96.50;;;;;;4912448;29;20087;-70
2022/04/22 04:00:40;;;;;;;14.23;6.55;;;8.50;96.40;;;;;;4934009;29;20439;-70
2022/04/22 04:03:15;;;;;;;13.70;8.10;;;8.50;96.50;;;;;;4932528;29;20028;-70
2022/04/22 04:05:44;;;;;;;15.00;7.57;;;8.50;96.50;;;;;;4916859;29;20043;-70
2022/04/22 04:08:11;;;;;;;12.63;6.88;;;8.40;96.60;;;;;;4930697;29;20032;-70
2022/04/22 04:16:05;;;;;;;13.98;7.00;;;8.40;96.80;;;;;;4933610;29;20039;-71
2022/04/22 04:18:33;;;;;;;13.32;6.78;;;8.30;96.70;;;;;;4931969;29;20040;-70
2022/04/22 04:23:44;;;;;;;12.20;6.53;;;8.40;96.70;;;;;;4932764;29;20183;-71
2022/04/22 04:26:10;;;;;;;15.75;7.63;;;8.40;96.70;;;;;;4933085;29;20119;-72
2022/04/22 04:28:37;;;;;;;13.32;7.13;;;8.40;96.80;;;;;;4931968;29;20036;-72
2022/04/22 04:31:04;;;;;;;12.25;6.65;;;8.40;96.70;;;;;;4934302;29;20028;-71
2022/04/22 04:33:30;;;;;;;13.52;7.40;;;8.40;96.70;;;;;;4922416;29;20095;-70
2022/04/22 04:35:55;;;;;;;14.98;7.00;;;8.40;96.70;;;;;;4936434;29;20131;-70
2022/04/22 04:38:22;;;;;;;11.88;6.47;;;8.50;96.70;;;;;;4924086;29;20119;-70
2022/04/22 04:40:48;;;;;;;12.45;6.93;;;8.50;96.80;;;;;;4922256;29;20024;-70
2022/04/22 04:43:14;;;;;;;14.30;7.47;;;8.50;96.70;;;;;;4931527;29;20038;-70
2022/04/22 04:45:40;;;;;;;17.38;7.43;;;8.50;96.70;;;;;;4937740;29;20141;-70
2022/04/22 04:48:06;;;;;;;13.95;7.30;;;8.50;96.70;;;;;;4927589;29;20120;-70
2022/04/22 04:50:32;;;;;;;14.30;7.20;;;8.50;96.70;;;;;;4918403;29;20043;-69
2022/04/22 04:52:58;;;;;;;10.95;7.25;;;8.50;96.70;;;;;;4928666;29;20027;-71
2022/04/22 04:55:23;;;;;;;19.08;7.60;;;8.60;96.70;;;;;;4915977;29;20103;-70
2022/04/22 04:57:49;;;;;;;13.40;6.90;;;8.60;96.70;;;;;;4926832;29;20043;-71
2022/04/22 05:00:16;;;;;;;12.60;6.20;;;8.70;96.70;;;;;;4936908;29;20098;-70
2022/04/22 05:02:42;;;;;;;9.95;6.00;;;8.80;96.60;;;;;;4935737;29;20035;-70
2022/04/22 05:05:09;;;;;;;12.38;6.95;;;8.90;96.60;;;;;;4936385;29;20061;-69
2022/04/22 05:07:54;;;;;;;14.70;7.32;;;8.90;96.40;;;;;;4935917;29;20519;-70
2022/04/22 05:10:19;;;;;;;12.38;6.63;;;8.90;96.40;;;;;;4936733;29;20403;-70
2022/04/22 05:12:46;;;;;;;11.65;6.25;;;8.90;96.40;;;;;;4922126;29;20063;-71
2022/04/22 05:15:15;;;;;;;18.58;7.32;;;9.00;96.40;;;;;;4936226;29;20123;-71
2022/04/22 05:17:41;;;;;;;17.00;6.82;;;9.10;96.40;;;;;;4934475;29;20444;-71
2022/04/22 05:20:09;;;;;;;15.50;7.47;;;9.00;96.30;;;;;;4915512;29;20364;-71
2022/04/22 05:22:34;;;;;;;12.82;6.57;;;9.00;96.30;;;;;;4934836;29;20056;-71
2022/04/22 05:25:00;;;;;;;12.20;6.88;;;9.10;96.30;;;;;;4919178;29;20094;-71
2022/04/22 05:27:25;;;;;;;10.55;6.90;;;9.10;96.30;;;;;;4926844;29;20476;-71
2022/04/22 05:32:38;;;;;;;15.60;6.70;;;9.20;96.20;;;;;;4934197;29;20058;-70
2022/04/22 05:35:05;;;;;;;13.65;8.13;;;9.20;96.10;;;;;;4935962;29;20067;-76
2022/04/22 05:37:50;;;;;;;10.27;6.80;;;9.30;96.10;;;;;;4911099;29;20118;-72
2022/04/22 05:40:18;;;;;;;12.05;7.15;;;9.20;96.00;;;;;;4935260;29;20036;-73
2022/04/22 05:42:44;;;;;;;11.57;6.10;;;9.20;96.00;;;;;;4925216;29;20032;-67
2022/04/22 05:45:11;;;;;;;12.95;7.15;;;9.20;96.00;;;;;;4918303;29;20037;-70
2022/04/22 05:47:37;;;;;;;14.82;7.53;;;9.20;96.10;;;;;;4931785;29;20086;-69
2022/04/22 05:50:04;;;;;;;11.77;7.47;;;9.20;96.10;;;;;;4920139;29;20074;-69
2022/04/22 05:52:33;;;;;;;13.77;7.57;;;9.20;96.20;;;;;;4931371;29;20031;-69
2022/04/22 05:55:02;;;;;;;15.13;7.80;;;9.30;96.20;;;;;;4934947;29;20035;-69
2022/04/22 05:57:31;;;;;;;16.77;7.35;;;9.30;96.20;;;;;;4924627;29;20027;-68
2022/04/22 05:59:57;;;;;;;13.18;7.63;;;9.30;96.20;;;;;;4935139;29;20078;-68
2022/04/22 06:02:22;;;;;;;12.77;7.60;;;9.40;96.30;;;;;;4921365;29;20032;-69
2022/04/22 06:04:51;;;;;;;18.92;8.23;;;9.50;96.20;;;;;;4917137;29;20668;-69
2022/04/22 06:07:17;;;;;;;12.57;6.75;;;9.60;96.20;;;;;;4920157;29;20119;-69
2022/04/22 06:12:27;;;;;;;15.43;8.20;;;9.60;96.10;;;;;;4927277;29;20027;-69
2022/04/22 06:14:53;;;;;;;14.05;7.13;;;9.60;96.10;;;;;;4934639;29;20509;-69
2022/04/22 06:17:19;;;;;;;13.32;6.85;;;9.60;96.00;;;;;;4929955;29;20492;-70
2022/04/22 06:19:44;;;;;;;12.43;6.65;;;9.70;95.90;;;;;;4928526;29;20114;-69
2022/04/22 06:22:09;;;;;;;11.43;7.05;;;9.80;95.90;;;;;;4929476;29;20047;-70
2022/04/22 06:24:35;;;;;;;16.08;8.48;;;9.80;95.90;;;;;;4927655;29;20067;-69
2022/04/22 06:27:00;;;;;;;12.32;8.00;;;10.00;95.90;;;;;;4930258;29;20110;-69
2022/04/22 06:29:26;;;;;;;13.85;7.68;;;10.00;95.80;;;;;;4933613;29;20039;-70
2022/04/22 06:31:53;;;;;;;11.90;6.97;;;10.10;95.70;;;;;;4931478;29;20122;-70
2022/04/22 06:34:19;;;;;;;11.40;6.97;;;10.20;95.60;;;;;;4926284;29;20119;-70
2022/04/22 06:36:44;;;;;;;14.35;7.13;;;10.30;95.40;;;;;;4916810;29;20115;-70
2022/04/22 06:39:10;;;;;;;11.60;7.10;;;10.40;95.20;;;;;;4933955;29;20043;-68
2022/04/22 06:47:05;;;;;;;12.35;7.15;;;10.60;94.90;;;;;;4933216;29;20432;-70
2022/04/22 06:49:31;;;;;;;13.20;6.95;;;10.70;94.70;;;;;;4925428;29;20099;-69
2022/04/22 06:51:57;;;;;;;15.00;6.43;;;10.80;94.30;;;;;;4918022;29;20143;-69
2022/04/22 06:54:22;;;;;;;11.95;7.00;;;10.80;94.10;;;;;;4919738;29;20032;-69
2022/04/22 06:56:49;;;;;;;11.02;7.15;;;10.80;94.00;;;;;;4921696;29;20075;-69
2022/04/22 06:59:19;;;;;;;13.60;6.45;;;10.80;94.00;;;;;;4934020;29;20115;-69
2022/04/22 07:01:45;;;;;;;10.70;6.43;;;10.90;94.20;;;;;;4932362;29;20028;-70
2022/04/22 07:04:10;;;;;;;11.75;6.10;;;11.00;94.10;;;;;;4933680;29;20028;-69
2022/04/22 07:06:36;;;;;;;10.95;6.20;;;11.10;93.90;;;;;;4923962;29;20444;-70
2022/04/22 07:09:04;;;;;;;11.65;6.55;;;11.10;93.80;;;;;;4932023;29;20527;-69
2022/04/22 07:11:30;;;;;;;9.93;5.70;;;11.10;93.80;;;;;;4934355;29;20066;-68
2022/04/22 07:14:00;;;;;;;9.73;6.00;;;11.10;93.40;;;;;;4928455;29;20028;-68
2022/04/22 07:16:26;;;;;;;9.27;6.30;;;11.20;93.40;;;;;;4919514;29;20087;-68
2022/04/22 07:18:52;;;;;;;12.77;6.70;;;11.20;93.30;;;;;;4930627;29;20043;-68
2022/04/22 07:21:17;;;;;;;10.98;7.07;;;11.20;93.30;;;;;;4918507;29;20156;-69
2022/04/22 07:23:44;;;;;;;11.70;6.47;;;11.20;93.30;;;;;;4930482;29;22169;-68
2022/04/22 07:26:10;;;;;;;13.85;7.25;;;11.30;93.30;;;;;;4920387;29;20087;-70
2022/04/22 07:28:38;;;;;;;11.02;6.78;;;11.40;93.30;;;;;;4932618;29;20145;-69
2022/04/22 07:31:04;;;;;;;12.43;6.93;;;11.40;93.10;;;;;;4933691;29;20491;-69
2022/04/22 07:33:33;;;;;;;13.18;7.13;;;11.50;93.10;;;;;;4932339;29;20031;-69
2022/04/22 07:35:59;;;;;;;11.20;7.15;;;11.60;93.10;;;;;;4913581;29;20088;-69
2022/04/22 07:38:25;;;;;;;14.85;7.07;;;11.70;93.00;;;;;;4932910;29;20046;-69
2022/04/22 07:40:51;;;;;;;8.80;6.43;;;11.70;92.70;;;;;;4932627;29;20360;-69
2022/04/22 07:48:52;;;;;;;11.70;6.55;;;11.80;92.50;;;;;;4924849;29;20038;-70
2022/04/22 07:51:18;;;;;;;12.75;7.80;;;11.80;92.50;;;;;;4931594;29;20062;-70
2022/04/22 07:53:44;;;;;;;10.35;6.65;;;11.80;92.50;;;;;;4930161;29;20479;-69
2022/04/22 07:56:10;;;;;;;12.35;6.43;;;11.80;92.50;;;;;;4928464;29;20056;-70
2022/04/22 07:58:36;;;;;;;10.48;7.28;;;11.80;92.50;;;;;;4931928;29;20046;-70
2022/04/22 08:01:03;;;;;;;12.07;6.78;;;11.80;92.60;;;;;;4898038;29;20028;-69
2022/04/22 08:03:28;;;;;;;13.73;7.78;;;11.80;92.60;;;;;;4932761;29;20038;-69
2022/04/22 08:05:54;;;;;;;12.07;7.85;;;11.80;92.60;;;;;;4930767;29;20036;-69
2022/04/22 08:08:19;;;;;;;12.20;7.55;;;11.80;92.60;;;;;;4927539;29;20036;-70
2022/04/22 08:10:45;;;;;;;14.23;7.45;;;11.90;92.80;;;;;;4932410;29;20045;-70
2022/04/22 08:13:10;;;;;;;13.02;7.88;;;11.90;92.70;;;;;;4931743;29;20034;-70
2022/04/22 08:15:36;;;;;;;13.88;8.07;;;12.00;92.80;;;;;;4933133;29;20053;-70
2022/04/22 08:18:03;;;;;;;12.38;8.07;;;12.00;92.80;;;;;;4928397;29;20058;-69
2022/04/22 08:20:31;;;;;;;12.50;8.82;;;12.10;92.80;;;;;;4918480;29;20028;-71
2022/04/22 08:23:00;;;;;;;16.65;9.50;;;12.10;92.90;;;;;;4926858;29;20051;-71
2022/04/22 08:25:26;;;;;;;18.35;10.30;;;12.10;92.90;;;;;;4900340;29;20605;-70
2022/04/22 08:27:52;;;;;;;14.52;10.30;;;12.20;93.00;;;;;;4931223;29;20082;-70
2022/04/22 08:30:17;;;;;;;14.10;10.10;;;12.30;93.00;;;;;;4933586;29;20047;-71
2022/04/22 08:32:44;;;;;;;14.15;9.68;;;12.40;92.90;;;;;;4917401;29;20032;-68
2022/04/22 08:35:10;;;;;;;12.35;8.23;;;12.40;93.00;;;;;;4914759;29;20067;-66
2022/04/22 08:37:37;;;;;;;18.30;9.27;;;12.50;93.00;;;;;;4923191;29;20059;-68
2022/04/22 08:40:05;;;;;;;13.68;10.25;;;12.40;93.10;;;;;;4932150;29;20042;-68
2022/04/22 08:42:34;;;;;;;24.55;12.13;;;12.40;93.10;;;;;;4922058;29;20020;-68
2022/04/22 08:45:00;;;;;;;16.02;10.52;;;12.40;93.10;;;;;;4940656;29;20032;-69
2022/04/22 08:50:13;;;;;;;14.25;9.23;;;12.30;93.20;;;;;;4932807;29;20111;-69
2022/04/22 08:52:40;;;;;;;14.70;9.95;;;12.40;93.20;;;;;;4931041;29;20143;-67
2022/04/22 08:55:07;;;;;;;12.77;8.73;;;12.50;93.20;;;;;;4933233;29;20038;-68
2022/04/22 08:57:33;;;;;;;14.48;9.07;;;12.60;93.20;;;;;;4932700;29;20063;-68
2022/04/22 09:00:07;;;;;;;16.27;10.43;;;12.60;93.20;;;;;;4932924;29;20059;-68
2022/04/22 09:02:33;;;;;;;15.10;9.48;;;12.70;93.20;;;;;;4932144;29;20032;-66
2022/04/22 09:04:58;;;;;;;16.45;10.13;;;12.80;93.20;;;;;;4910867;29;20103;-67
2022/04/22 09:07:28;;;;;;;13.30;9.60;;;12.80;93.10;;;;;;4934742;29;20036;-67
2022/04/22 09:09:56;;;;;;;14.88;9.10;;;12.90;93.10;;;;;;4934154;29;20035;-67
2022/04/22 09:12:26;;;;;;;15.55;10.50;;;13.00;93.00;;;;;;4933153;29;20028;-67
2022/04/22 09:14:54;;;;;;;15.57;9.25;;;13.00;92.90;;;;;;4933337;29;20027;-67
2022/04/22 09:17:28;;;;;;;11.73;8.60;;;13.20;92.90;;;;;;4931795;29;20051;-67
2022/04/22 09:19:57;;;;;;;15.57;9.63;;;13.20;92.90;;;;;;4924195;29;20024;-68
2022/04/22 09:22:23;;;;;;;14.40;9.73;;;13.20;92.80;;;;;;4931805;29;20391;-67
2022/04/22 09:24:57;;;;;;;14.07;10.10;;;13.30;92.80;;;;;;4936039;29;20497;-67
2022/04/22 09:27:32;;;;;;;14.85;10.60;;;13.30;92.90;;;;;;4937143;29;20482;-68
2022/04/22 09:30:00;;;;;;;15.50;9.55;;;13.30;92.90;;;;;;4934732;29;20039;-68
2022/04/22 09:32:30;;;;;;;14.77;10.20;;;13.30;93.00;;;;;;4936526;29;20028;-68
2022/04/22 09:35:05;;;;;;;13.88;10.45;;;13.40;93.10;;;;;;4936250;29;20043;-67
2022/04/22 09:43:17;;;;;;;16.60;11.30;;;13.70;93.00;;;;;;4895511;29;20033;-67
2022/04/22 09:45:44;;;;;;;14.90;11.45;;;13.80;93.10;;;;;;4922130;29;20036;-67
2022/04/22 09:48:19;;;;;;;19.08;11.70;;;13.80;93.10;;;;;;4931843;29;20040;-67
2022/04/22 09:50:46;;;;;;;16.35;12.00;;;13.90;93.20;;;;;;4924882;29;20031;-67
2022/04/22 09:53:14;;;;;;;18.35;12.57;;;14.00;93.20;;;;;;4934652;29;20031;-67
2022/04/22 09:55:48;;;;;;;20.25;13.88;;;14.10;93.20;;;;;;4936212;29;20047;-67
2022/04/22 09:58:21;;;;;;;20.90;14.55;;;14.10;93.20;;;;;;4934844;29;20059;-67
2022/04/22 10:00:50;;;;;;;19.98;14.77;;;14.10;93.10;;;;;;4935618;29;20031;-68
2022/04/22 10:03:16;;;;;;;20.00;15.55;;;14.00;93.10;;;;;;4934898;29;20048;-67
2022/04/22 10:05:42;;;;;;;24.25;15.07;;;14.00;93.10;;;;;;4923600;29;20063;-67
2022/04/22 10:08:10;;;;;;;20.13;14.85;;;14.00;93.10;;;;;;4922648;29;20067;-67
2022/04/22 10:10:39;;;;;;;20.27;15.60;;;14.10;93.10;;;;;;4935986;29;20558;-67
2022/04/22 10:13:07;;;;;;;17.98;13.57;;;14.00;93.10;;;;;;4933826;29;20073;-68
2022/04/22 10:15:37;;;;;;;21.80;14.38;;;14.00;93.10;;;;;;4934573;29;20095;-68
2022/04/22 10:18:04;;;;;;;21.17;15.23;;;14.00;93.10;;;;;;4918562;29;20397;-67
2022/04/22 10:20:30;;;;;;;18.42;14.35;;;14.00;93.20;;;;;;4934881;29;20539;-66
2022/04/22 10:22:57;;;;;;;19.27;14.35;;;14.00;93.30;;;;;;4935202;29;20046;-68
2022/04/22 10:25:23;;;;;;;23.13;14.30;;;14.00;93.30;;;;;;4935835;29;20065;-67
2022/04/22 10:27:51;;;;;;;17.77;14.75;;;14.00;93.30;;;;;;4935707;29;20028;-68
2022/04/22 10:30:17;;;;;;;17.90;13.80;;;14.10;93.50;;;;;;4935021;29;20854;-67
2022/04/22 10:32:45;;;;;;;18.88;14.02;;;14.20;93.60;;;;;;4932022;29;20028;-67
2022/04/22 10:35:12;;;;;;;19.60;14.30;;;14.20;93.70;;;;;;4925565;29;20036;-68
2022/04/22 10:37:38;;;;;;;19.27;14.73;;;14.30;93.90;;;;;;4933406;29;20118;-67
2022/04/22 10:40:04;;;;;;;19.25;15.25;;;14.20;93.80;;;;;;4933073;29;20275;-68
2022/04/22 10:42:38;;;;;;;19.77;14.68;;;14.30;93.80;;;;;;4932718;29;20118;-68
2022/04/22 10:47:51;;;;;;;18.60;13.82;;;14.20;93.90;;;;;;4933199;29;20067;-66
2022/04/22 10:50:39;;;;;;;18.63;13.57;;;14.20;93.80;;;;;;4934641;29;20443;-68
2022/04/22 10:53:07;;;;;;;22.52;14.55;;;14.20;93.90;;;;;;4930481;29;20039;-68
2022/04/22 10:55:40;;;;;;;17.48;14.80;;;14.20;93.90;;;;;;4934900;29;20107;-67
2022/04/22 10:58:12;;;;;;;20.80;15.50;;;14.20;93.90;;;;;;4913930;29;20036;-68
2022/04/22 11:00:54;;;;;;;19.48;14.18;;;14.20;94.00;;;;;;4933917;29;20114;-67
2022/04/22 11:03:31;;;;;;;19.38;15.77;;;14.30;94.00;;;;;;4916696;29;20031;-67
2022/04/22 11:06:07;;;;;;;18.67;14.43;;;14.40;94.00;;;;;;4932922;29;20431;-67
2022/04/22 11:08:41;;;;;;;21.88;15.70;;;14.40;94.00;;;;;;4916492;29;20069;-67
2022/04/22 11:11:17;;;;;;;22.33;15.52;;;14.40;93.90;;;;;;4933803;29;20035;-68
2022/04/22 11:13:45;;;;;;;21.52;15.77;;;14.40;93.80;;;;;;4920772;29;20031;-68
2022/04/22 11:16:19;;;;;;;20.20;15.65;;;14.40;93.80;;;;;;4932131;29;20043;-67
2022/04/22 11:19:09;;;;;;;21.77;17.50;;;14.40;93.80;;;;;;4916395;29;20063;-67
2022/04/22 11:21:37;;;;;;;22.15;18.10;;;14.40;93.60;;;;;;4929309;29;20070;-67
2022/04/22 11:24:14;;;;;;;26.17;19.35;;;14.40;93.60;;;;;;4933062;29;20060;-67
2022/04/22 11:26:40;;;;;;;24.48;19.30;;;14.40;93.60;;;;;;4923265;29;20037;-68
2022/04/22 11:29:10;;;;;;;25.48;19.25;;;14.30;93.60;;;;;;4934054;29;20032;-68
2022/04/22 11:31:36;;;;;;;24.67;20.42;;;14.20;93.70;;;;;;4932069;29;20482;-68
2022/04/22 11:34:10;;;;;;;25.73;20.30;;;14.20;93.80;;;;;;4928373;29;20484;-68
2022/04/22 11:36:46;;;;;;;26.98;20.23;;;14.20;93.90;;;;;;4929456;29;20075;-68
2022/04/22 11:39:20;;;;;;;25.15;19.75;;;14.20;94.00;;;;;;4925975;29;20051;-68
2022/04/22 11:42:00;;;;;;;22.90;19.05;;;14.10;94.10;;;;;;4931306;29;20857;-67
2022/04/22 11:44:27;;;;;;;25.30;21.08;;;14.10;94.10;;;;;;4921841;29;20391;-67
2022/04/22 11:46:53;;;;;;;25.88;19.63;;;14.10;94.10;;;;;;4931047;29;20027;-67
2022/04/22 11:49:20;;;;;;;29.95;21.73;;;14.10;94.10;;;;;;4926960;29;20028;-68
2022/04/22 11:51:50;;;;;;;25.98;20.80;;;14.20;94.20;;;;;;4939250;29;20599;-67
2022/04/22 11:54:21;;;;;;;26.48;21.38;;;14.20;94.10;;;;;;4930636;29;20554;-68
2022/04/22 11:56:47;;;;;;;28.00;21.52;;;14.20;94.10;;;;;;4922382;29;22501;-67
2022/04/22 11:59:12;;;;;;;27.23;20.20;;;14.10;94.10;;;;;;4913862;29;20043;-67
2022/04/22 12:10:00;;;;;;;29.10;20.35;;;14.20;94.10;;;;;;4915112;29;20088;-66
2022/04/22 12:12:32;;;;;;;28.35;21.67;;;14.20;94.10;;;;;;4915653;29;20845;-67
2022/04/22 12:15:00;;;;;;;27.08;21.60;;;14.20;94.10;;;;;;4913483;29;20044;-67
2022/04/22 12:17:25;;;;;;;26.67;21.17;;;14.20;94.10;;;;;;4921674;29;20127;-68
2022/04/22 12:19:51;;;;;;;27.77;20.33;;;14.20;94.10;;;;;;4913886;29;20036;-67
2022/04/22 12:22:17;;;;;;;25.70;19.88;;;14.30;94.20;;;;;;4913935;29;20059;-67
2022/04/22 12:25:05;;;;;;;30.15;22.30;;;14.30;94.20;;;;;;4913540;29;20043;-68
2022/04/22 12:27:31;;;;;;;27.52;20.88;;;14.30;94.20;;;;;;4915417;29;20039;-68
2022/04/22 12:30:01;;;;;;;31.40;21.80;;;14.30;94.20;;;;;;4922178;29;20024;-68
2022/04/22 12:32:26;;;;;;;27.35;21.13;;;14.40;94.20;;;;;;4926989;29;20503;-67
2022/04/22 12:35:08;;;;;;;31.30;22.02;;;14.50;94.20;;;;;;4916042;29;20099;-70
2022/04/22 12:37:33;;;;;;;26.50;21.70;;;14.50;94.10;;;;;;4915442;29;20091;-68
2022/04/22 12:40:08;;;;;;;27.30;20.02;;;14.50;94.00;;;;;;4915888;29;20043;-69
2022/04/22 12:42:35;;;;;;;25.42;20.52;;;14.60;94.00;;;;;;4920616;29;20732;-66
2022/04/22 12:53:34;;;;;;;23.55;18.55;;;14.70;93.70;;;;;;4918770;29;20082;-69
2022/04/22 12:56:02;;;;;;;23.27;19.85;;;14.80;93.70;;;;;;4904271;29;20499;-68
2022/04/22 12:58:28;;;;;;;24.35;18.67;;;15.00;93.50;;;;;;4918961;29;20051;-68
2022/04/22 13:00:54;;;;;;;25.58;19.30;;;15.00;93.40;;;;;;4904775;29;20399;-68
2022/04/22 13:03:21;;;;;;;24.08;18.38;;;15.10;93.40;;;;;;4917916;29;20031;-69
2022/04/22 13:05:50;;;;;;;20.88;16.10;;;15.20;93.30;;;;;;4917996;29;20380;-69
2022/04/22 13:08:16;;;;;;;22.30;15.60;;;15.30;92.90;;;;;;4917135;29;20040;-68
2022/04/22 13:10:42;;;;;;;21.50;15.95;;;15.40;92.50;;;;;;4916828;29;20515;-69
2022/04/22 13:13:08;;;;;;;21.48;16.20;;;15.50;92.10;;;;;;4918112;29;20067;-69
2022/04/22 13:15:33;;;;;;;20.25;15.85;;;15.50;92.10;;;;;;4917800;29;20867;-69
2022/04/22 13:17:59;;;;;;;21.25;16.40;;;15.60;92.10;;;;;;4908169;29;20036;-67
2022/04/22 13:20:24;;;;;;;16.67;13.38;;;15.70;92.00;;;;;;4925426;29;20046;-67
2022/04/22 13:22:50;;;;;;;19.85;14.05;;;15.80;91.50;;;;;;4917763;29;20052;-69
2022/04/22 13:25:17;;;;;;;17.58;14.77;;;15.80;91.40;;;;;;4906268;29;20032;-71
2022/04/22 13:27:44;;;;;;;17.48;13.73;;;15.80;90.90;;;;;;4917513;29;20100;-71
2022/04/22 13:30:11;;;;;;;20.33;14.57;;;15.80;91.00;;;;;;4917386;29;20538;-71
2022/04/22 13:32:37;;;;;;;19.13;14.15;;;15.80;90.60;;;;;;4916870;29;20122;-70
2022/04/22 13:35:04;;;;;;;19.58;14.88;;;15.70;90.50;;;;;;4917718;29;20074;-70
2022/04/22 13:37:31;;;;;;;20.35;15.65;;;15.70;90.80;;;;;;4916397;29;20593;-70
2022/04/22 13:39:57;;;;;;;16.95;13.77;;;15.50;90.60;;;;;;4905660;29;20042;-71
2022/04/22 13:42:22;;;;;;;19.65;13.85;;;15.50;90.90;;;;;;4915942;29;20106;-70